KLEE

Leesburg International Airport

Leesburg, Florida, USA
KLEE 182339Z 1900/1924 VRB03KT P6SM SCT250 FM191500 18008KT P6SM FEW040 BKN250
Issued Valid From Valid To
Jan-18 @ 23:39 UTC
(3 hours ago)
Jan-19 @ 00:00 UTC
(2 hours ago)
Jan-20 @ 00:00 UTC
(in 22 hours)
Jan-19 @ 00:00 to Jan-19 @ 15:00
KLEE 182339Z 1900/1924 VRB03KT P6SM SCT250
Wind Visibility Clouds
Variable at 3 knots Greater than 6 miles
  • Scattered at 25,000' AGL
From Jan-19 @ 15:00 to Jan-20 @ 00:00
FM191500 18008KT P6SM FEW040 BKN250
Wind Visibility Clouds
180° at 8 knots Greater than 6 miles
  • Few at 4,000' AGL
  • Broken at 25,000' AGL
KLEE 182339Z 1900/1924 VRB03KT P6SM SCT250 FM191500 18008KT P6SM FEW040 BKN250
Issued Jan-18 @ 23:39 UTC
(3 hours ago)
Valid From Jan-19 @ 00:00 UTC
(2 hours ago)
Valid To Jan-20 @ 00:00 UTC
(in 22 hours)
Jan-19 @ 00:00 - Jan-19 @ 15:00
Wind Visibility
Variable at 3 knots Greater than 6 miles
Clouds
  • Scattered at 25,000' AGL
From Jan-19 @ 15:00 - Jan-20 @ 00:00
Wind Visibility
180° at 8 knots Greater than 6 miles
Clouds
  • Few at 4,000' AGL
  • Broken at 25,000' AGL